sensor_id;sensor_type;location;lat;lon;timestamp;P1;durP1;ratioP1;P2;durP2;ratioP2
65533;SDS011;53640;55.838;37.184;2024-01-25T00:01:46;18.50;;;8.48;;
65533;SDS011;53640;55.838;37.184;2024-01-25T00:04:13;18.15;;;8.18;;
65533;SDS011;53640;55.838;37.184;2024-01-25T00:06:39;16.63;;;9.07;;
65533;SDS011;53640;55.838;37.184;2024-01-25T00:09:06;14.90;;;8.25;;
65533;SDS011;53640;55.838;37.184;2024-01-25T00:11:32;16.52;;;8.13;;
65533;SDS011;53640;55.838;37.184;2024-01-25T00:13:59;15.82;;;8.40;;
65533;SDS011;53640;55.838;37.184;2024-01-25T00:16:27;17.48;;;8.57;;
65533;SDS011;53640;55.838;37.184;2024-01-25T00:18:56;18.60;;;8.55;;
65533;SDS011;53640;55.838;37.184;2024-01-25T00:21:23;14.77;;;7.95;;
65533;SDS011;53640;55.838;37.184;2024-01-25T00:23:49;15.27;;;7.95;;
65533;SDS011;53640;55.838;37.184;2024-01-25T00:26:15;14.77;;;7.78;;
65533;SDS011;53640;55.838;37.184;2024-01-25T00:28:42;16.48;;;8.35;;
65533;SDS011;53640;55.838;37.184;2024-01-25T00:31:10;15.98;;;7.93;;
65533;SDS011;53640;55.838;37.184;2024-01-25T00:33:38;13.95;;;6.90;;
65533;SDS011;53640;55.838;37.184;2024-01-25T00:36:07;16.17;;;8.75;;
65533;SDS011;53640;55.838;37.184;2024-01-25T00:38:34;16.70;;;8.32;;
65533;SDS011;53640;55.838;37.184;2024-01-25T00:41:01;20.23;;;7.82;;
65533;SDS011;53640;55.838;37.184;2024-01-25T00:43:27;15.82;;;8.25;;
65533;SDS011;53640;55.838;37.184;2024-01-25T00:45:54;14.98;;;8.30;;
65533;SDS011;53640;55.838;37.184;2024-01-25T00:48:21;19.05;;;9.02;;
65533;SDS011;53640;55.838;37.184;2024-01-25T00:50:48;14.75;;;8.98;;
65533;SDS011;53640;55.838;37.184;2024-01-25T00:53:14;18.35;;;8.02;;
65533;SDS011;53640;55.838;37.184;2024-01-25T00:55:46;17.42;;;8.63;;
65533;SDS011;53640;55.838;37.184;2024-01-25T00:58:13;18.90;;;8.50;;
65533;SDS011;53640;55.838;37.184;2024-01-25T01:00:39;15.90;;;8.85;;
65533;SDS011;53640;55.838;37.184;2024-01-25T01:03:07;18.27;;;8.68;;
65533;SDS011;53640;55.838;37.184;2024-01-25T01:05:34;18.13;;;8.55;;
65533;SDS011;53640;55.838;37.184;2024-01-25T01:08:01;16.33;;;7.80;;
65533;SDS011;53640;55.838;37.184;2024-01-25T01:10:30;18.40;;;8.65;;
65533;SDS011;53640;55.838;37.184;2024-01-25T01:12:57;17.33;;;8.57;;
65533;SDS011;53640;55.838;37.184;2024-01-25T01:15:24;15.88;;;8.13;;
65533;SDS011;53640;55.838;37.184;2024-01-25T01:17:51;17.27;;;8.80;;
65533;SDS011;53640;55.838;37.184;2024-01-25T01:20:17;18.85;;;9.10;;
65533;SDS011;53640;55.838;37.184;2024-01-25T01:22:44;16.50;;;8.10;;
65533;SDS011;53640;55.838;37.184;2024-01-25T01:25:11;18.02;;;9.15;;
65533;SDS011;53640;55.838;37.184;2024-01-25T01:27:37;17.27;;;8.75;;
65533;SDS011;53640;55.838;37.184;2024-01-25T01:30:04;16.08;;;8.55;;
65533;SDS011;53640;55.838;37.184;2024-01-25T01:32:35;18.25;;;8.57;;
65533;SDS011;53640;55.838;37.184;2024-01-25T01:35:01;20.20;;;8.57;;
65533;SDS011;53640;55.838;37.184;2024-01-25T01:37:29;16.20;;;8.43;;
65533;SDS011;53640;55.838;37.184;2024-01-25T01:39:55;19.13;;;8.82;;
65533;SDS011;53640;55.838;37.184;2024-01-25T01:42:22;15.50;;;8.10;;
65533;SDS011;53640;55.838;37.184;2024-01-25T01:44:49;14.75;;;8.23;;
65533;SDS011;53640;55.838;37.184;2024-01-25T01:47:17;16.38;;;8.55;;
65533;SDS011;53640;55.838;37.184;2024-01-25T01:49:44;19.77;;;9.30;;
65533;SDS011;53640;55.838;37.184;2024-01-25T01:52:11;17.70;;;8.32;;
65533;SDS011;53640;55.838;37.184;2024-01-25T01:54:37;18.98;;;7.97;;
65533;SDS011;53640;55.838;37.184;2024-01-25T01:57:04;17.05;;;7.57;;
65533;SDS011;53640;55.838;37.184;2024-01-25T01:59:33;17.30;;;8.38;;
65533;SDS011;53640;55.838;37.184;2024-01-25T02:02:00;14.02;;;7.57;;
65533;SDS011;53640;55.838;37.184;2024-01-25T02:04:27;17.75;;;7.90;;
65533;SDS011;53640;55.838;37.184;2024-01-25T02:06:53;19.48;;;8.98;;
65533;SDS011;53640;55.838;37.184;2024-01-25T02:09:21;13.88;;;7.25;;
65533;SDS011;53640;55.838;37.184;2024-01-25T02:12:04;12.52;;;7.40;;
65533;SDS011;53640;55.838;37.184;2024-01-25T02:14:31;13.45;;;6.85;;
65533;SDS011;53640;55.838;37.184;2024-01-25T02:17:00;12.13;;;7.05;;
65533;SDS011;53640;55.838;37.184;2024-01-25T02:19:27;13.98;;;7.00;;
65533;SDS011;53640;55.838;37.184;2024-01-25T02:21:54;12.13;;;6.95;;
65533;SDS011;53640;55.838;37.184;2024-01-25T02:24:26;11.68;;;6.47;;
65533;SDS011;53640;55.838;37.184;2024-01-25T02:26:52;12.63;;;6.63;;
65533;SDS011;53640;55.838;37.184;2024-01-25T02:29:19;15.57;;;7.43;;
65533;SDS011;53640;55.838;37.184;2024-01-25T02:31:50;13.75;;;7.28;;
65533;SDS011;53640;55.838;37.184;2024-01-25T02:34:17;13.15;;;6.75;;
65533;SDS011;53640;55.838;37.184;2024-01-25T02:36:43;11.05;;;6.57;;
65533;SDS011;53640;55.838;37.184;2024-01-25T02:39:09;15.15;;;7.57;;
65533;SDS011;53640;55.838;37.184;2024-01-25T02:41:36;12.35;;;6.43;;
65533;SDS011;53640;55.838;37.184;2024-01-25T02:44:02;15.15;;;7.32;;
65533;SDS011;53640;55.838;37.184;2024-01-25T02:46:29;11.68;;;6.60;;
65533;SDS011;53640;55.838;37.184;2024-01-25T02:48:56;12.52;;;6.15;;
65533;SDS011;53640;55.838;37.184;2024-01-25T02:51:23;15.45;;;8.15;;
65533;SDS011;53640;55.838;37.184;2024-01-25T02:53:49;15.05;;;7.30;;
65533;SDS011;53640;55.838;37.184;2024-01-25T02:56:15;13.65;;;7.22;;
65533;SDS011;53640;55.838;37.184;2024-01-25T02:58:43;14.35;;;7.18;;
65533;SDS011;53640;55.838;37.184;2024-01-25T03:01:09;13.35;;;6.55;;
65533;SDS011;53640;55.838;37.184;2024-01-25T03:03:37;11.77;;;6.72;;
65533;SDS011;53640;55.838;37.184;2024-01-25T03:06:05;12.32;;;7.22;;
65533;SDS011;53640;55.838;37.184;2024-01-25T03:08:32;14.88;;;7.22;;
65533;SDS011;53640;55.838;37.184;2024-01-25T03:11:00;14.57;;;7.78;;
65533;SDS011;53640;55.838;37.184;2024-01-25T03:13:30;11.82;;;6.72;;
65533;SDS011;53640;55.838;37.184;2024-01-25T03:15:58;13.15;;;7.15;;
65533;SDS011;53640;55.838;37.184;2024-01-25T03:18:24;12.95;;;6.65;;
65533;SDS011;53640;55.838;37.184;2024-01-25T03:20:50;10.73;;;6.53;;
65533;SDS011;53640;55.838;37.184;2024-01-25T03:23:18;11.15;;;6.47;;
65533;SDS011;53640;55.838;37.184;2024-01-25T03:25:46;10.15;;;5.93;;
65533;SDS011;53640;55.838;37.184;2024-01-25T03:28:15;10.65;;;6.03;;
65533;SDS011;53640;55.838;37.184;2024-01-25T03:30:45;11.10;;;6.38;;
65533;SDS011;53640;55.838;37.184;2024-01-25T03:33:12;9.95;;;6.30;;
65533;SDS011;53640;55.838;37.184;2024-01-25T03:35:39;11.18;;;5.72;;
65533;SDS011;53640;55.838;37.184;2024-01-25T03:38:05;10.75;;;5.55;;
65533;SDS011;53640;55.838;37.184;2024-01-25T03:40:33;13.27;;;6.40;;
65533;SDS011;53640;55.838;37.184;2024-01-25T03:43:02;10.18;;;5.85;;
65533;SDS011;53640;55.838;37.184;2024-01-25T03:45:28;11.55;;;6.43;;
65533;SDS011;53640;55.838;37.184;2024-01-25T03:47:56;12.20;;;6.25;;
65533;SDS011;53640;55.838;37.184;2024-01-25T03:50:23;10.70;;;6.57;;
65533;SDS011;53640;55.838;37.184;2024-01-25T03:52:49;11.77;;;6.63;;
65533;SDS011;53640;55.838;37.184;2024-01-25T03:55:16;11.32;;;6.80;;
65533;SDS011;53640;55.838;37.184;2024-01-25T03:57:44;11.10;;;6.57;;
65533;SDS011;53640;55.838;37.184;2024-01-25T04:00:11;11.13;;;7.00;;
65533;SDS011;53640;55.838;37.184;2024-01-25T04:02:38;12.00;;;7.15;;
65533;SDS011;53640;55.838;37.184;2024-01-25T04:05:04;11.73;;;6.25;;
65533;SDS011;53640;55.838;37.184;2024-01-25T04:07:31;10.13;;;6.53;;
65533;SDS011;53640;55.838;37.184;2024-01-25T04:09:58;11.70;;;7.32;;
65533;SDS011;53640;55.838;37.184;2024-01-25T04:12:24;12.27;;;6.20;;
65533;SDS011;53640;55.838;37.184;2024-01-25T04:14:51;12.27;;;6.82;;
65533;SDS011;53640;55.838;37.184;2024-01-25T04:17:17;14.38;;;6.85;;
65533;SDS011;53640;55.838;37.184;2024-01-25T04:19:43;13.45;;;6.72;;
65533;SDS011;53640;55.838;37.184;2024-01-25T04:22:10;12.70;;;6.75;;
65533;SDS011;53640;55.838;37.184;2024-01-25T04:24:37;14.50;;;7.00;;
65533;SDS011;53640;55.838;37.184;2024-01-25T04:27:03;10.52;;;6.57;;
65533;SDS011;53640;55.838;37.184;2024-01-25T04:29:31;10.25;;;6.75;;
65533;SDS011;53640;55.838;37.184;2024-01-25T04:31:58;11.73;;;6.72;;
65533;SDS011;53640;55.838;37.184;2024-01-25T04:34:24;11.07;;;6.35;;
65533;SDS011;53640;55.838;37.184;2024-01-25T04:36:51;11.80;;;6.68;;
65533;SDS011;53640;55.838;37.184;2024-01-25T04:39:17;11.13;;;6.15;;
65533;SDS011;53640;55.838;37.184;2024-01-25T04:41:44;9.35;;;6.18;;
65533;SDS011;53640;55.838;37.184;2024-01-25T04:44:10;11.93;;;6.53;;
65533;SDS011;53640;55.838;37.184;2024-01-25T04:46:40;16.58;;;7.57;;
65533;SDS011;53640;55.838;37.184;2024-01-25T04:49:12;12.93;;;7.35;;
65533;SDS011;53640;55.838;37.184;2024-01-25T04:51:40;13.32;;;6.32;;
65533;SDS011;53640;55.838;37.184;2024-01-25T04:54:07;10.30;;;6.25;;
65533;SDS011;53640;55.838;37.184;2024-01-25T04:56:37;12.20;;;6.47;;
65533;SDS011;53640;55.838;37.184;2024-01-25T04:59:03;11.95;;;6.78;;
65533;SDS011;53640;55.838;37.184;2024-01-25T05:01:31;8.95;;;5.93;;
65533;SDS011;53640;55.838;37.184;2024-01-25T05:03:59;10.38;;;6.22;;
65533;SDS011;53640;55.838;37.184;2024-01-25T05:06:26;14.77;;;7.18;;
65533;SDS011;53640;55.838;37.184;2024-01-25T05:08:53;10.80;;;6.45;;
65533;SDS011;53640;55.838;37.184;2024-01-25T05:11:20;14.38;;;7.22;;
65533;SDS011;53640;55.838;37.184;2024-01-25T05:13:48;13.15;;;6.60;;
65533;SDS011;53640;55.838;37.184;2024-01-25T05:16:15;10.98;;;6.45;;
65533;SDS011;53640;55.838;37.184;2024-01-25T05:18:42;9.30;;;5.90;;
65533;SDS011;53640;55.838;37.184;2024-01-25T05:21:08;10.15;;;5.80;;
65533;SDS011;53640;55.838;37.184;2024-01-25T05:23:35;12.68;;;6.78;;
65533;SDS011;53640;55.838;37.184;2024-01-25T05:26:01;9.52;;;6.10;;
65533;SDS011;53640;55.838;37.184;2024-01-25T05:28:29;12.32;;;6.30;;
65533;SDS011;53640;55.838;37.184;2024-01-25T05:30:58;9.13;;;6.18;;
65533;SDS011;53640;55.838;37.184;2024-01-25T05:33:24;11.43;;;6.65;;
65533;SDS011;53640;55.838;37.184;2024-01-25T05:35:50;11.80;;;7.03;;
65533;SDS011;53640;55.838;37.184;2024-01-25T05:38:19;9.73;;;5.72;;
65533;SDS011;53640;55.838;37.184;2024-01-25T05:40:45;9.80;;;6.10;;
65533;SDS011;53640;55.838;37.184;2024-01-25T05:43:12;9.52;;;5.90;;
65533;SDS011;53640;55.838;37.184;2024-01-25T05:45:38;10.07;;;6.20;;
65533;SDS011;53640;55.838;37.184;2024-01-25T05:48:10;12.75;;;6.53;;
65533;SDS011;53640;55.838;37.184;2024-01-25T05:50:38;9.65;;;6.55;;
65533;SDS011;53640;55.838;37.184;2024-01-25T05:53:06;8.38;;;5.35;;
65533;SDS011;53640;55.838;37.184;2024-01-25T05:55:33;8.60;;;5.30;;
65533;SDS011;53640;55.838;37.184;2024-01-25T05:58:00;10.00;;;6.45;;
65533;SDS011;53640;55.838;37.184;2024-01-25T06:00:26;11.35;;;6.25;;
65533;SDS011;53640;55.838;37.184;2024-01-25T06:02:54;10.48;;;6.20;;
65533;SDS011;53640;55.838;37.184;2024-01-25T06:05:21;10.50;;;5.90;;
65533;SDS011;53640;55.838;37.184;2024-01-25T06:07:47;10.68;;;6.15;;
65533;SDS011;53640;55.838;37.184;2024-01-25T06:10:16;11.65;;;6.25;;
65533;SDS011;53640;55.838;37.184;2024-01-25T06:12:42;9.57;;;5.97;;
65533;SDS011;53640;55.838;37.184;2024-01-25T06:15:09;9.48;;;6.43;;
65533;SDS011;53640;55.838;37.184;2024-01-25T06:17:35;13.27;;;6.82;;
65533;SDS011;53640;55.838;37.184;2024-01-25T06:20:03;10.40;;;5.85;;
65533;SDS011;53640;55.838;37.184;2024-01-25T06:22:30;11.65;;;6.03;;
65533;SDS011;53640;55.838;37.184;2024-01-25T06:24:57;10.80;;;5.93;;
65533;SDS011;53640;55.838;37.184;2024-01-25T06:27:23;10.27;;;6.43;;
65533;SDS011;53640;55.838;37.184;2024-01-25T06:29:54;10.77;;;6.18;;
65533;SDS011;53640;55.838;37.184;2024-01-25T06:32:20;10.32;;;6.10;;
65533;SDS011;53640;55.838;37.184;2024-01-25T06:34:47;10.23;;;6.10;;
65533;SDS011;53640;55.838;37.184;2024-01-25T06:37:16;11.48;;;6.35;;
65533;SDS011;53640;55.838;37.184;2024-01-25T06:39:46;9.93;;;6.15;;
65533;SDS011;53640;55.838;37.184;2024-01-25T06:42:14;12.10;;;6.70;;
65533;SDS011;53640;55.838;37.184;2024-01-25T06:44:40;10.48;;;6.38;;
65533;SDS011;53640;55.838;37.184;2024-01-25T06:47:07;8.77;;;5.65;;
65533;SDS011;53640;55.838;37.184;2024-01-25T06:49:33;11.35;;;7.45;;
65533;SDS011;53640;55.838;37.184;2024-01-25T06:52:00;10.82;;;6.05;;
65533;SDS011;53640;55.838;37.184;2024-01-25T06:54:29;11.65;;;7.10;;
65533;SDS011;53640;55.838;37.184;2024-01-25T06:56:57;10.70;;;6.80;;
65533;SDS011;53640;55.838;37.184;2024-01-25T06:59:24;11.52;;;6.20;;
65533;SDS011;53640;55.838;37.184;2024-01-25T07:01:50;11.02;;;5.95;;
65533;SDS011;53640;55.838;37.184;2024-01-25T07:04:20;8.68;;;6.28;;
65533;SDS011;53640;55.838;37.184;2024-01-25T07:06:47;10.02;;;6.28;;
65533;SDS011;53640;55.838;37.184;2024-01-25T07:09:13;12.88;;;7.60;;
65533;SDS011;53640;55.838;37.184;2024-01-25T07:11:39;13.65;;;6.65;;
65533;SDS011;53640;55.838;37.184;2024-01-25T07:14:06;11.38;;;6.18;;
65533;SDS011;53640;55.838;37.184;2024-01-25T07:16:33;10.63;;;6.90;;
65533;SDS011;53640;55.838;37.184;2024-01-25T07:19:00;11.88;;;7.05;;
65533;SDS011;53640;55.838;37.184;2024-01-25T07:21:27;13.98;;;6.95;;
65533;SDS011;53640;55.838;37.184;2024-01-25T07:23:53;9.15;;;6.03;;
65533;SDS011;53640;55.838;37.184;2024-01-25T07:26:23;11.50;;;6.18;;
65533;SDS011;53640;55.838;37.184;2024-01-25T07:28:50;9.50;;;5.85;;
65533;SDS011;53640;55.838;37.184;2024-01-25T07:31:19;14.43;;;7.15;;
65533;SDS011;53640;55.838;37.184;2024-01-25T07:33:48;12.23;;;6.43;;
65533;SDS011;53640;55.838;37.184;2024-01-25T07:36:16;11.23;;;6.00;;
65533;SDS011;53640;55.838;37.184;2024-01-25T07:38:45;12.70;;;6.85;;
65533;SDS011;53640;55.838;37.184;2024-01-25T07:41:15;12.10;;;6.97;;
65533;SDS011;53640;55.838;37.184;2024-01-25T07:43:44;11.68;;;6.45;;
65533;SDS011;53640;55.838;37.184;2024-01-25T07:46:10;10.88;;;6.10;;
65533;SDS011;53640;55.838;37.184;2024-01-25T07:48:40;10.73;;;5.93;;
65533;SDS011;53640;55.838;37.184;2024-01-25T07:51:12;13.70;;;7.22;;
65533;SDS011;53640;55.838;37.184;2024-01-25T07:53:41;11.10;;;6.43;;
65533;SDS011;53640;55.838;37.184;2024-01-25T07:56:10;12.75;;;6.53;;
65533;SDS011;53640;55.838;37.184;2024-01-25T07:58:37;9.88;;;6.30;;
65533;SDS011;53640;55.838;37.184;2024-01-25T08:01:06;11.65;;;6.35;;
65533;SDS011;53640;55.838;37.184;2024-01-25T08:03:33;10.68;;;6.35;;
65533;SDS011;53640;55.838;37.184;2024-01-25T08:06:01;9.65;;;5.70;;
65533;SDS011;53640;55.838;37.184;2024-01-25T08:08:29;10.05;;;6.13;;
65533;SDS011;53640;55.838;37.184;2024-01-25T08:10:55;11.35;;;6.47;;
65533;SDS011;53640;55.838;37.184;2024-01-25T08:13:25;11.73;;;6.93;;
65533;SDS011;53640;55.838;37.184;2024-01-25T08:16:04;11.32;;;6.28;;
65533;SDS011;53640;55.838;37.184;2024-01-25T08:21:06;10.88;;;6.53;;
65533;SDS011;53640;55.838;37.184;2024-01-25T08:23:32;9.68;;;6.20;;
65533;SDS011;53640;55.838;37.184;2024-01-25T08:25:59;11.88;;;6.35;;
65533;SDS011;53640;55.838;37.184;2024-01-25T08:28:28;12.18;;;7.05;;
65533;SDS011;53640;55.838;37.184;2024-01-25T08:30:55;10.30;;;6.35;;
65533;SDS011;53640;55.838;37.184;2024-01-25T08:33:23;11.95;;;6.28;;
65533;SDS011;53640;55.838;37.184;2024-01-25T08:35:51;10.80;;;6.35;;
65533;SDS011;53640;55.838;37.184;2024-01-25T08:38:19;11.82;;;6.50;;
65533;SDS011;53640;55.838;37.184;2024-01-25T08:40:49;12.65;;;6.65;;
65533;SDS011;53640;55.838;37.184;2024-01-25T08:43:15;12.80;;;6.57;;
65533;SDS011;53640;55.838;37.184;2024-01-25T08:45:42;11.20;;;6.25;;
65533;SDS011;53640;55.838;37.184;2024-01-25T08:48:09;11.30;;;6.60;;
65533;SDS011;53640;55.838;37.184;2024-01-25T08:50:36;14.02;;;7.65;;
65533;SDS011;53640;55.838;37.184;2024-01-25T08:53:03;11.50;;;6.63;;
65533;SDS011;53640;55.838;37.184;2024-01-25T08:55:29;14.18;;;7.72;;
65533;SDS011;53640;55.838;37.184;2024-01-25T08:57:56;15.70;;;8.27;;
65533;SDS011;53640;55.838;37.184;2024-01-25T09:00:23;17.50;;;8.82;;
65533;SDS011;53640;55.838;37.184;2024-01-25T09:02:50;14.07;;;8.30;;
65533;SDS011;53640;55.838;37.184;2024-01-25T09:05:17;10.65;;;6.97;;
65533;SDS011;53640;55.838;37.184;2024-01-25T09:07:46;12.63;;;7.60;;
65533;SDS011;53640;55.838;37.184;2024-01-25T09:10:13;10.50;;;6.68;;
65533;SDS011;53640;55.838;37.184;2024-01-25T09:12:40;16.15;;;7.13;;
65533;SDS011;53640;55.838;37.184;2024-01-25T09:15:09;14.52;;;7.50;;
65533;SDS011;53640;55.838;37.184;2024-01-25T09:17:36;14.82;;;7.63;;
65533;SDS011;53640;55.838;37.184;2024-01-25T09:20:05;12.63;;;6.80;;
65533;SDS011;53640;55.838;37.184;2024-01-25T09:22:32;10.85;;;6.80;;
65533;SDS011;53640;55.838;37.184;2024-01-25T09:24:59;10.98;;;6.35;;
65533;SDS011;53640;55.838;37.184;2024-01-25T09:27:25;11.48;;;6.88;;
65533;SDS011;53640;55.838;37.184;2024-01-25T09:29:52;12.23;;;6.80;;
65533;SDS011;53640;55.838;37.184;2024-01-25T09:32:18;10.20;;;6.40;;
65533;SDS011;53640;55.838;37.184;2024-01-25T09:34:49;10.73;;;7.10;;
65533;SDS011;53640;55.838;37.184;2024-01-25T09:37:21;11.13;;;7.20;;
65533;SDS011;53640;55.838;37.184;2024-01-25T09:39:54;9.65;;;6.28;;
65533;SDS011;53640;55.838;37.184;2024-01-25T09:42:24;10.40;;;6.22;;
65533;SDS011;53640;55.838;37.184;2024-01-25T09:45:01;11.60;;;6.95;;
65533;SDS011;53640;55.838;37.184;2024-01-25T09:47:36;9.93;;;6.60;;
65533;SDS011;53640;55.838;37.184;2024-01-25T09:50:12;11.32;;;6.15;;
65533;SDS011;53640;55.838;37.184;2024-01-25T09:52:50;12.85;;;6.72;;
65533;SDS011;53640;55.838;37.184;2024-01-25T09:55:27;12.02;;;6.38;;
65533;SDS011;53640;55.838;37.184;2024-01-25T09:57:59;12.35;;;6.93;;
65533;SDS011;53640;55.838;37.184;2024-01-25T10:00:28;11.13;;;7.20;;
65533;SDS011;53640;55.838;37.184;2024-01-25T10:02:55;12.48;;;6.82;;
65533;SDS011;53640;55.838;37.184;2024-01-25T10:05:24;16.77;;;7.13;;
65533;SDS011;53640;55.838;37.184;2024-01-25T10:07:56;12.57;;;6.70;;
65533;SDS011;53640;55.838;37.184;2024-01-25T10:10:31;10.18;;;6.20;;
65533;SDS011;53640;55.838;37.184;2024-01-25T10:13:01;10.25;;;6.45;;
65533;SDS011;53640;55.838;37.184;2024-01-25T10:15:39;11.90;;;6.22;;
65533;SDS011;53640;55.838;37.184;2024-01-25T10:18:07;11.30;;;6.25;;
65533;SDS011;53640;55.838;37.184;2024-01-25T10:20:41;9.18;;;5.78;;
65533;SDS011;53640;55.838;37.184;2024-01-25T10:23:13;11.65;;;7.00;;
65533;SDS011;53640;55.838;37.184;2024-01-25T10:25:43;12.23;;;6.70;;
65533;SDS011;53640;55.838;37.184;2024-01-25T10:28:23;12.65;;;6.82;;
65533;SDS011;53640;55.838;37.184;2024-01-25T10:30:59;11.02;;;6.25;;
65533;SDS011;53640;55.838;37.184;2024-01-25T10:33:33;9.88;;;6.13;;
65533;SDS011;53640;55.838;37.184;2024-01-25T10:36:01;9.65;;;5.90;;
65533;SDS011;53640;55.838;37.184;2024-01-25T10:38:34;9.35;;;5.82;;
65533;SDS011;53640;55.838;37.184;2024-01-25T10:41:02;10.75;;;6.78;;
65533;SDS011;53640;55.838;37.184;2024-01-25T10:43:30;10.05;;;6.68;;
65533;SDS011;53640;55.838;37.184;2024-01-25T10:45:58;9.10;;;5.90;;
65533;SDS011;53640;55.838;37.184;2024-01-25T10:48:27;12.30;;;7.07;;
65533;SDS011;53640;55.838;37.184;2024-01-25T10:50:57;13.20;;;6.68;;
65533;SDS011;53640;55.838;37.184;2024-01-25T10:53:32;9.63;;;6.18;;
65533;SDS011;53640;55.838;37.184;2024-01-25T10:56:00;8.73;;;5.70;;
65533;SDS011;53640;55.838;37.184;2024-01-25T10:58:31;10.82;;;6.43;;
65533;SDS011;53640;55.838;37.184;2024-01-25T11:00:59;11.75;;;6.13;;
65533;SDS011;53640;55.838;37.184;2024-01-25T11:03:29;10.93;;;6.43;;
65533;SDS011;53640;55.838;37.184;2024-01-25T11:06:06;11.68;;;5.75;;
65533;SDS011;53640;55.838;37.184;2024-01-25T11:08:48;9.75;;;6.18;;
65533;SDS011;53640;55.838;37.184;2024-01-25T11:11:14;10.55;;;6.70;;
65533;SDS011;53640;55.838;37.184;2024-01-25T11:13:42;8.70;;;5.82;;
65533;SDS011;53640;55.838;37.184;2024-01-25T11:18:53;11.30;;;6.88;;
65533;SDS011;53640;55.838;37.184;2024-01-25T11:24:13;11.75;;;6.90;;
65533;SDS011;53640;55.838;37.184;2024-01-25T11:26:43;12.07;;;7.18;;
65533;SDS011;53640;55.838;37.184;2024-01-25T11:29:18;11.07;;;6.47;;
65533;SDS011;53640;55.838;37.184;2024-01-25T11:31:48;9.52;;;6.20;;
65533;SDS011;53640;55.838;37.184;2024-01-25T11:34:16;11.52;;;6.97;;
65533;SDS011;53640;55.838;37.184;2024-01-25T11:36:45;11.05;;;7.28;;
65533;SDS011;53640;55.838;37.184;2024-01-25T11:39:19;10.52;;;6.63;;
65533;SDS011;53640;55.838;37.184;2024-01-25T11:41:45;7.45;;;5.63;;
65533;SDS011;53640;55.838;37.184;2024-01-25T11:44:13;11.98;;;6.75;;
65533;SDS011;53640;55.838;37.184;2024-01-25T11:46:40;11.27;;;6.68;;
65533;SDS011;53640;55.838;37.184;2024-01-25T11:49:07;11.88;;;7.13;;
65533;SDS011;53640;55.838;37.184;2024-01-25T11:51:33;13.52;;;7.40;;
65533;SDS011;53640;55.838;37.184;2024-01-25T11:54:02;11.10;;;6.53;;
65533;SDS011;53640;55.838;37.184;2024-01-25T11:56:34;9.45;;;6.10;;
65533;SDS011;53640;55.838;37.184;2024-01-25T11:59:07;14.65;;;8.60;;
65533;SDS011;53640;55.838;37.184;2024-01-25T12:01:37;11.10;;;6.57;;
65533;SDS011;53640;55.838;37.184;2024-01-25T12:04:09;11.30;;;6.50;;
65533;SDS011;53640;55.838;37.184;2024-01-25T12:06:39;11.80;;;6.97;;
65533;SDS011;53640;55.838;37.184;2024-01-25T12:09:09;12.07;;;6.70;;
65533;SDS011;53640;55.838;37.184;2024-01-25T12:11:38;11.20;;;7.55;;
65533;SDS011;53640;55.838;37.184;2024-01-25T12:15:03;14.73;;;7.80;;
65533;SDS011;53640;55.838;37.184;2024-01-25T12:17:32;13.60;;;7.50;;
65533;SDS011;53640;55.838;37.184;2024-01-25T12:20:02;12.32;;;7.40;;
65533;SDS011;53640;55.838;37.184;2024-01-25T12:22:29;12.15;;;6.95;;
65533;SDS011;53640;55.838;37.184;2024-01-25T12:24:59;12.32;;;7.60;;
65533;SDS011;53640;55.838;37.184;2024-01-25T12:27:29;11.18;;;7.03;;
65533;SDS011;53640;55.838;37.184;2024-01-25T12:29:59;12.80;;;7.07;;
65533;SDS011;53640;55.838;37.184;2024-01-25T12:32:27;13.52;;;8.10;;
65533;SDS011;53640;55.838;37.184;2024-01-25T12:34:58;12.88;;;7.82;;
65533;SDS011;53640;55.838;37.184;2024-01-25T12:37:34;10.60;;;7.35;;
65533;SDS011;53640;55.838;37.184;2024-01-25T12:40:04;13.00;;;7.55;;
65533;SDS011;53640;55.838;37.184;2024-01-25T12:42:33;11.35;;;7.45;;
65533;SDS011;53640;55.838;37.184;2024-01-25T12:45:00;10.75;;;7.20;;
65533;SDS011;53640;55.838;37.184;2024-01-25T12:47:31;19.05;;;8.23;;
65533;SDS011;53640;55.838;37.184;2024-01-25T12:49:58;14.32;;;8.07;;
65533;SDS011;53640;55.838;37.184;2024-01-25T12:52:29;13.32;;;7.32;;
65533;SDS011;53640;55.838;37.184;2024-01-25T12:54:55;15.50;;;8.15;;
65533;SDS011;53640;55.838;37.184;2024-01-25T12:57:22;15.10;;;8.38;;
65533;SDS011;53640;55.838;37.184;2024-01-25T12:59:49;13.93;;;7.90;;
65533;SDS011;53640;55.838;37.184;2024-01-25T13:02:15;16.80;;;8.55;;
65533;SDS011;53640;55.838;37.184;2024-01-25T13:04:42;13.52;;;7.97;;
65533;SDS011;53640;55.838;37.184;2024-01-25T13:07:13;15.38;;;8.35;;
65533;SDS011;53640;55.838;37.184;2024-01-25T13:09:41;17.15;;;9.55;;
65533;SDS011;53640;55.838;37.184;2024-01-25T13:12:10;13.25;;;7.78;;
65533;SDS011;53640;55.838;37.184;2024-01-25T13:14:37;15.82;;;8.65;;
65533;SDS011;53640;55.838;37.184;2024-01-25T13:17:06;12.32;;;8.48;;
65533;SDS011;53640;55.838;37.184;2024-01-25T13:19:34;14.10;;;8.35;;
65533;SDS011;53640;55.838;37.184;2024-01-25T13:22:00;15.77;;;8.48;;
65533;SDS011;53640;55.838;37.184;2024-01-25T13:24:30;15.35;;;8.70;;
65533;SDS011;53640;55.838;37.184;2024-01-25T13:26:57;16.20;;;9.07;;
65533;SDS011;53640;55.838;37.184;2024-01-25T13:29:24;14.82;;;8.40;;
65533;SDS011;53640;55.838;37.184;2024-01-25T13:31:52;14.80;;;8.82;;
65533;SDS011;53640;55.838;37.184;2024-01-25T13:34:19;16.48;;;9.07;;
65533;SDS011;53640;55.838;37.184;2024-01-25T13:36:47;15.60;;;9.00;;
65533;SDS011;53640;55.838;37.184;2024-01-25T13:39:13;13.43;;;8.07;;
65533;SDS011;53640;55.838;37.184;2024-01-25T13:41:40;13.18;;;7.22;;
65533;SDS011;53640;55.838;37.184;2024-01-25T13:44:07;14.80;;;8.98;;
65533;SDS011;53640;55.838;37.184;2024-01-25T13:46:35;13.77;;;8.45;;
65533;SDS011;53640;55.838;37.184;2024-01-25T13:49:01;15.65;;;8.65;;
65533;SDS011;53640;55.838;37.184;2024-01-25T13:51:29;15.82;;;8.98;;
65533;SDS011;53640;55.838;37.184;2024-01-25T13:53:58;14.13;;;8.85;;
65533;SDS011;53640;55.838;37.184;2024-01-25T13:56:26;14.82;;;8.25;;
65533;SDS011;53640;55.838;37.184;2024-01-25T13:58:55;16.30;;;8.88;;
65533;SDS011;53640;55.838;37.184;2024-01-25T14:01:26;13.80;;;8.05;;
65533;SDS011;53640;55.838;37.184;2024-01-25T14:03:53;14.25;;;8.18;;
65533;SDS011;53640;55.838;37.184;2024-01-25T14:06:19;15.27;;;8.80;;
65533;SDS011;53640;55.838;37.184;2024-01-25T14:08:46;14.38;;;8.68;;
65533;SDS011;53640;55.838;37.184;2024-01-25T14:11:16;15.45;;;8.95;;
65533;SDS011;53640;55.838;37.184;2024-01-25T14:13:43;25.48;;;8.80;;
65533;SDS011;53640;55.838;37.184;2024-01-25T14:16:13;12.40;;;7.30;;
65533;SDS011;53640;55.838;37.184;2024-01-25T14:18:44;14.07;;;8.50;;
65533;SDS011;53640;55.838;37.184;2024-01-25T14:21:13;15.77;;;8.32;;
65533;SDS011;53640;55.838;37.184;2024-01-25T14:23:41;15.88;;;8.05;;
65533;SDS011;53640;55.838;37.184;2024-01-25T14:26:15;16.30;;;8.45;;
65533;SDS011;53640;55.838;37.184;2024-01-25T14:29:01;14.00;;;8.35;;
65533;SDS011;53640;55.838;37.184;2024-01-25T14:31:30;14.25;;;8.60;;
65533;SDS011;53640;55.838;37.184;2024-01-25T14:33:57;12.55;;;8.15;;
65533;SDS011;53640;55.838;37.184;2024-01-25T14:36:23;14.07;;;8.48;;
65533;SDS011;53640;55.838;37.184;2024-01-25T14:38:50;13.55;;;7.88;;